sensor_id;sensor_type;location;lat;lon;timestamp;P1;durP1;ratioP1;P2;durP2;ratioP2
55913;SDS011;58179;48.776;9.124;2023-03-12T00:00:03;9.57;;;5.57;;
55913;SDS011;58179;48.776;9.124;2023-03-12T00:02:33;10.68;;;6.30;;
55913;SDS011;58179;48.776;9.124;2023-03-12T00:04:59;10.50;;;5.55;;
55913;SDS011;58179;48.776;9.124;2023-03-12T00:07:26;10.77;;;5.97;;
55913;SDS011;58179;48.776;9.124;2023-03-12T00:09:52;12.15;;;6.43;;
55913;SDS011;58179;48.776;9.124;2023-03-12T00:12:18;11.43;;;6.50;;
55913;SDS011;58179;48.776;9.124;2023-03-12T00:14:44;16.77;;;6.63;;
55913;SDS011;58179;48.776;9.124;2023-03-12T00:17:10;9.10;;;5.45;;
55913;SDS011;58179;48.776;9.124;2023-03-12T00:19:36;10.20;;;5.53;;
55913;SDS011;58179;48.776;9.124;2023-03-12T00:22:01;13.02;;;6.00;;
55913;SDS011;58179;48.776;9.124;2023-03-12T00:24:29;8.18;;;5.55;;
55913;SDS011;58179;48.776;9.124;2023-03-12T00:26:55;13.15;;;5.90;;
55913;SDS011;58179;48.776;9.124;2023-03-12T00:29:20;14.37;;;5.80;;
55913;SDS011;58179;48.776;9.124;2023-03-12T00:31:46;9.23;;;5.00;;
55913;SDS011;58179;48.776;9.124;2023-03-12T00:34:12;10.85;;;5.25;;
55913;SDS011;58179;48.776;9.124;2023-03-12T00:36:38;12.95;;;5.30;;
55913;SDS011;58179;48.776;9.124;2023-03-12T00:39:05;12.20;;;6.07;;
55913;SDS011;58179;48.776;9.124;2023-03-12T00:41:32;11.20;;;6.32;;
55913;SDS011;58179;48.776;9.124;2023-03-12T00:43:58;14.33;;;5.97;;
55913;SDS011;58179;48.776;9.124;2023-03-12T00:46:24;9.60;;;5.72;;
55913;SDS011;58179;48.776;9.124;2023-03-12T00:48:50;8.88;;;5.63;;
55913;SDS011;58179;48.776;9.124;2023-03-12T00:51:17;9.45;;;5.78;;
55913;SDS011;58179;48.776;9.124;2023-03-12T00:53:43;13.60;;;6.40;;
55913;SDS011;58179;48.776;9.124;2023-03-12T00:56:09;9.27;;;5.43;;
55913;SDS011;58179;48.776;9.124;2023-03-12T00:58:36;11.47;;;5.20;;
55913;SDS011;58179;48.776;9.124;2023-03-12T01:01:02;8.38;;;5.68;;
55913;SDS011;58179;48.776;9.124;2023-03-12T01:03:29;10.77;;;5.30;;
55913;SDS011;58179;48.776;9.124;2023-03-12T01:05:55;11.70;;;5.00;;
55913;SDS011;58179;48.776;9.124;2023-03-12T01:08:21;13.63;;;5.80;;
55913;SDS011;58179;48.776;9.124;2023-03-12T01:10:47;11.87;;;5.63;;
55913;SDS011;58179;48.776;9.124;2023-03-12T01:13:14;11.30;;;5.18;;
55913;SDS011;58179;48.776;9.124;2023-03-12T01:15:41;8.05;;;5.10;;
55913;SDS011;58179;48.776;9.124;2023-03-12T01:18:07;7.43;;;5.15;;
55913;SDS011;58179;48.776;9.124;2023-03-12T01:20:33;10.52;;;5.78;;
55913;SDS011;58179;48.776;9.124;2023-03-12T01:22:59;10.60;;;5.80;;
55913;SDS011;58179;48.776;9.124;2023-03-12T01:25:25;11.52;;;5.70;;
55913;SDS011;58179;48.776;9.124;2023-03-12T01:27:51;8.40;;;5.25;;
55913;SDS011;58179;48.776;9.124;2023-03-12T01:30:17;9.77;;;5.60;;
55913;SDS011;58179;48.776;9.124;2023-03-12T01:32:45;9.90;;;5.88;;
55913;SDS011;58179;48.776;9.124;2023-03-12T01:35:11;13.13;;;6.10;;
55913;SDS011;58179;48.776;9.124;2023-03-12T01:37:37;8.02;;;4.85;;
55913;SDS011;58179;48.776;9.124;2023-03-12T01:40:04;10.98;;;5.97;;
55913;SDS011;58179;48.776;9.124;2023-03-12T01:42:30;17.15;;;5.18;;
55913;SDS011;58179;48.776;9.124;2023-03-12T01:44:57;11.93;;;4.90;;
55913;SDS011;58179;48.776;9.124;2023-03-12T01:47:25;7.55;;;5.28;;
55913;SDS011;58179;48.776;9.124;2023-03-12T01:49:54;7.30;;;4.65;;
55913;SDS011;58179;48.776;9.124;2023-03-12T01:52:21;8.38;;;4.43;;
55913;SDS011;58179;48.776;9.124;2023-03-12T01:54:52;11.27;;;4.72;;
55913;SDS011;58179;48.776;9.124;2023-03-12T01:57:22;9.45;;;4.22;;
55913;SDS011;58179;48.776;9.124;2023-03-12T01:59:53;9.98;;;4.50;;
55913;SDS011;58179;48.776;9.124;2023-03-12T02:02:24;7.15;;;4.57;;
55913;SDS011;58179;48.776;9.124;2023-03-12T02:04:56;8.13;;;4.65;;
55913;SDS011;58179;48.776;9.124;2023-03-12T02:07:32;10.05;;;4.85;;
55913;SDS011;58179;48.776;9.124;2023-03-12T02:09:59;6.68;;;4.38;;
55913;SDS011;58179;48.776;9.124;2023-03-12T02:12:26;9.60;;;4.57;;
55913;SDS011;58179;48.776;9.124;2023-03-12T02:14:51;7.77;;;4.50;;
55913;SDS011;58179;48.776;9.124;2023-03-12T02:17:17;8.38;;;4.78;;
55913;SDS011;58179;48.776;9.124;2023-03-12T02:19:46;7.28;;;4.85;;
55913;SDS011;58179;48.776;9.124;2023-03-12T02:22:24;8.93;;;5.00;;
55913;SDS011;58179;48.776;9.124;2023-03-12T02:24:51;7.00;;;4.50;;
55913;SDS011;58179;48.776;9.124;2023-03-12T02:27:28;6.88;;;4.65;;
55913;SDS011;58179;48.776;9.124;2023-03-12T02:29:58;7.97;;;4.93;;
55913;SDS011;58179;48.776;9.124;2023-03-12T02:32:26;12.63;;;5.53;;
55913;SDS011;58179;48.776;9.124;2023-03-12T02:34:58;11.00;;;4.70;;
55913;SDS011;58179;48.776;9.124;2023-03-12T02:37:24;10.02;;;5.00;;
55913;SDS011;58179;48.776;9.124;2023-03-12T02:39:50;8.27;;;5.07;;
55913;SDS011;58179;48.776;9.124;2023-03-12T02:42:24;8.45;;;5.18;;
55913;SDS011;58179;48.776;9.124;2023-03-12T02:44:51;11.00;;;5.30;;
55913;SDS011;58179;48.776;9.124;2023-03-12T02:47:18;9.90;;;4.73;;
55913;SDS011;58179;48.776;9.124;2023-03-12T02:49:44;8.55;;;4.78;;
55913;SDS011;58179;48.776;9.124;2023-03-12T02:52:10;6.93;;;4.95;;
55913;SDS011;58179;48.776;9.124;2023-03-12T02:54:36;9.05;;;5.47;;
55913;SDS011;58179;48.776;9.124;2023-03-12T02:57:02;13.90;;;5.90;;
55913;SDS011;58179;48.776;9.124;2023-03-12T02:59:28;8.23;;;5.47;;
55913;SDS011;58179;48.776;9.124;2023-03-12T03:01:56;11.35;;;5.45;;
55913;SDS011;58179;48.776;9.124;2023-03-12T03:04:26;12.18;;;5.93;;
55913;SDS011;58179;48.776;9.124;2023-03-12T03:06:54;12.95;;;6.03;;
55913;SDS011;58179;48.776;9.124;2023-03-12T03:09:21;8.23;;;5.40;;
55913;SDS011;58179;48.776;9.124;2023-03-12T03:11:48;9.55;;;5.55;;
55913;SDS011;58179;48.776;9.124;2023-03-12T03:14:14;13.65;;;6.47;;
55913;SDS011;58179;48.776;9.124;2023-03-12T03:16:40;10.27;;;6.55;;
55913;SDS011;58179;48.776;9.124;2023-03-12T03:19:08;9.68;;;6.15;;
55913;SDS011;58179;48.776;9.124;2023-03-12T03:21:35;9.02;;;6.10;;
55913;SDS011;58179;48.776;9.124;2023-03-12T03:24:01;11.60;;;6.63;;
55913;SDS011;58179;48.776;9.124;2023-03-12T03:26:28;11.15;;;6.30;;
55913;SDS011;58179;48.776;9.124;2023-03-12T03:28:54;12.20;;;6.30;;
55913;SDS011;58179;48.776;9.124;2023-03-12T03:31:20;9.50;;;6.20;;
55913;SDS011;58179;48.776;9.124;2023-03-12T03:33:46;10.63;;;6.00;;
55913;SDS011;58179;48.776;9.124;2023-03-12T03:36:14;12.00;;;6.30;;
55913;SDS011;58179;48.776;9.124;2023-03-12T03:38:40;10.73;;;6.28;;
55913;SDS011;58179;48.776;9.124;2023-03-12T03:41:11;10.38;;;6.65;;
55913;SDS011;58179;48.776;9.124;2023-03-12T03:43:36;10.32;;;6.13;;
55913;SDS011;58179;48.776;9.124;2023-03-12T03:46:03;10.63;;;6.20;;
55913;SDS011;58179;48.776;9.124;2023-03-12T03:48:30;12.05;;;6.88;;
55913;SDS011;58179;48.776;9.124;2023-03-12T03:50:58;8.30;;;6.43;;
55913;SDS011;58179;48.776;9.124;2023-03-12T03:53:26;9.82;;;6.70;;
55913;SDS011;58179;48.776;9.124;2023-03-12T03:55:52;9.07;;;6.50;;
55913;SDS011;58179;48.776;9.124;2023-03-12T03:58:17;14.80;;;7.22;;
55913;SDS011;58179;48.776;9.124;2023-03-12T04:00:43;11.87;;;7.03;;
55913;SDS011;58179;48.776;9.124;2023-03-12T04:03:10;15.07;;;6.90;;
55913;SDS011;58179;48.776;9.124;2023-03-12T04:05:36;12.07;;;6.45;;
55913;SDS011;58179;48.776;9.124;2023-03-12T04:08:02;11.65;;;6.97;;
55913;SDS011;58179;48.776;9.124;2023-03-12T04:10:29;11.88;;;7.10;;
55913;SDS011;58179;48.776;9.124;2023-03-12T04:12:55;12.68;;;6.35;;
55913;SDS011;58179;48.776;9.124;2023-03-12T04:15:22;11.18;;;7.15;;
55913;SDS011;58179;48.776;9.124;2023-03-12T04:17:48;15.13;;;8.10;;
55913;SDS011;58179;48.776;9.124;2023-03-12T04:20:14;13.25;;;6.75;;
55913;SDS011;58179;48.776;9.124;2023-03-12T04:22:40;11.55;;;7.45;;
55913;SDS011;58179;48.776;9.124;2023-03-12T04:25:06;16.13;;;6.80;;
55913;SDS011;58179;48.776;9.124;2023-03-12T04:27:34;12.57;;;6.87;;
55913;SDS011;58179;48.776;9.124;2023-03-12T04:30:00;13.63;;;7.03;;
55913;SDS011;58179;48.776;9.124;2023-03-12T04:32:26;11.38;;;7.22;;
55913;SDS011;58179;48.776;9.124;2023-03-12T04:34:52;15.00;;;6.32;;
55913;SDS011;58179;48.776;9.124;2023-03-12T04:37:18;13.13;;;6.38;;
55913;SDS011;58179;48.776;9.124;2023-03-12T04:39:44;12.35;;;6.13;;
55913;SDS011;58179;48.776;9.124;2023-03-12T04:42:10;9.83;;;5.70;;
55913;SDS011;58179;48.776;9.124;2023-03-12T04:44:37;13.48;;;6.78;;
55913;SDS011;58179;48.776;9.124;2023-03-12T04:47:05;11.60;;;6.70;;
55913;SDS011;58179;48.776;9.124;2023-03-12T04:49:31;13.50;;;6.70;;
55913;SDS011;58179;48.776;9.124;2023-03-12T04:51:57;11.35;;;6.80;;
55913;SDS011;58179;48.776;9.124;2023-03-12T04:54:23;11.75;;;6.25;;
55913;SDS011;58179;48.776;9.124;2023-03-12T04:56:49;8.85;;;6.47;;
55913;SDS011;58179;48.776;9.124;2023-03-12T04:59:15;12.60;;;7.15;;
55913;SDS011;58179;48.776;9.124;2023-03-12T05:01:43;14.25;;;7.40;;
55913;SDS011;58179;48.776;9.124;2023-03-12T05:04:08;11.63;;;6.75;;
55913;SDS011;58179;48.776;9.124;2023-03-12T05:06:34;10.93;;;6.60;;
55913;SDS011;58179;48.776;9.124;2023-03-12T05:09:00;12.05;;;6.82;;
55913;SDS011;58179;48.776;9.124;2023-03-12T05:11:27;9.98;;;6.38;;
55913;SDS011;58179;48.776;9.124;2023-03-12T05:13:54;11.40;;;6.68;;
55913;SDS011;58179;48.776;9.124;2023-03-12T05:16:20;14.25;;;6.63;;
55913;SDS011;58179;48.776;9.124;2023-03-12T05:18:47;10.57;;;6.38;;
55913;SDS011;58179;48.776;9.124;2023-03-12T05:21:15;11.07;;;6.20;;
55913;SDS011;58179;48.776;9.124;2023-03-12T05:23:43;12.32;;;7.30;;
55913;SDS011;58179;48.776;9.124;2023-03-12T05:26:17;14.52;;;7.45;;
55913;SDS011;58179;48.776;9.124;2023-03-12T05:28:45;11.07;;;6.20;;
55913;SDS011;58179;48.776;9.124;2023-03-12T05:31:12;12.55;;;6.78;;
55913;SDS011;58179;48.776;9.124;2023-03-12T05:33:38;13.13;;;6.72;;
55913;SDS011;58179;48.776;9.124;2023-03-12T05:36:07;11.70;;;6.75;;
55913;SDS011;58179;48.776;9.124;2023-03-12T05:38:34;10.55;;;6.97;;
55913;SDS011;58179;48.776;9.124;2023-03-12T05:41:00;10.35;;;6.88;;
55913;SDS011;58179;48.776;9.124;2023-03-12T05:43:38;10.85;;;7.22;;
55913;SDS011;58179;48.776;9.124;2023-03-12T05:46:04;14.05;;;7.72;;
55913;SDS011;58179;48.776;9.124;2023-03-12T05:48:30;13.47;;;7.97;;
55913;SDS011;58179;48.776;9.124;2023-03-12T05:50:56;11.27;;;7.30;;
55913;SDS011;58179;48.776;9.124;2023-03-12T05:53:23;11.90;;;7.50;;
55913;SDS011;58179;48.776;9.124;2023-03-12T05:55:49;12.52;;;7.28;;
55913;SDS011;58179;48.776;9.124;2023-03-12T05:58:17;12.73;;;8.20;;
55913;SDS011;58179;48.776;9.124;2023-03-12T06:00:45;13.43;;;8.73;;
55913;SDS011;58179;48.776;9.124;2023-03-12T06:03:11;12.85;;;7.50;;
55913;SDS011;58179;48.776;9.124;2023-03-12T06:05:38;12.73;;;7.90;;
55913;SDS011;58179;48.776;9.124;2023-03-12T06:08:04;12.57;;;8.10;;
55913;SDS011;58179;48.776;9.124;2023-03-12T06:10:32;11.88;;;7.97;;
55913;SDS011;58179;48.776;9.124;2023-03-12T06:12:58;10.87;;;7.53;;
55913;SDS011;58179;48.776;9.124;2023-03-12T06:15:24;14.75;;;8.60;;
55913;SDS011;58179;48.776;9.124;2023-03-12T06:17:50;15.25;;;7.82;;
55913;SDS011;58179;48.776;9.124;2023-03-12T06:20:16;14.10;;;9.32;;
55913;SDS011;58179;48.776;9.124;2023-03-12T06:22:42;11.18;;;8.43;;
55913;SDS011;58179;48.776;9.124;2023-03-12T06:25:08;22.20;;;10.10;;
55913;SDS011;58179;48.776;9.124;2023-03-12T06:27:36;12.88;;;8.35;;
55913;SDS011;58179;48.776;9.124;2023-03-12T06:30:02;14.67;;;9.17;;
55913;SDS011;58179;48.776;9.124;2023-03-12T06:32:29;15.40;;;9.40;;
55913;SDS011;58179;48.776;9.124;2023-03-12T06:34:55;17.77;;;9.83;;
55913;SDS011;58179;48.776;9.124;2023-03-12T06:37:21;17.48;;;10.25;;
55913;SDS011;58179;48.776;9.124;2023-03-12T06:39:47;17.48;;;10.30;;
55913;SDS011;58179;48.776;9.124;2023-03-12T06:42:13;21.80;;;11.68;;
55913;SDS011;58179;48.776;9.124;2023-03-12T06:44:40;19.25;;;10.60;;
55913;SDS011;58179;48.776;9.124;2023-03-12T06:47:06;25.38;;;10.55;;
55913;SDS011;58179;48.776;9.124;2023-03-12T06:49:32;17.17;;;10.77;;
55913;SDS011;58179;48.776;9.124;2023-03-12T06:51:59;20.48;;;10.80;;
55913;SDS011;58179;48.776;9.124;2023-03-12T06:54:25;21.02;;;10.82;;
55913;SDS011;58179;48.776;9.124;2023-03-12T06:56:51;20.90;;;11.00;;
55913;SDS011;58179;48.776;9.124;2023-03-12T06:59:17;16.95;;;10.60;;
55913;SDS011;58179;48.776;9.124;2023-03-12T07:01:47;20.42;;;11.23;;
55913;SDS011;58179;48.776;9.124;2023-03-12T07:04:13;25.90;;;11.73;;
55913;SDS011;58179;48.776;9.124;2023-03-12T07:06:39;20.15;;;11.18;;
55913;SDS011;58179;48.776;9.124;2023-03-12T07:09:05;18.20;;;11.35;;
55913;SDS011;58179;48.776;9.124;2023-03-12T07:11:31;22.23;;;12.70;;
55913;SDS011;58179;48.776;9.124;2023-03-12T07:13:57;21.35;;;12.00;;
55913;SDS011;58179;48.776;9.124;2023-03-12T07:16:23;21.67;;;12.13;;
55913;SDS011;58179;48.776;9.124;2023-03-12T07:18:50;21.17;;;12.77;;
55913;SDS011;58179;48.776;9.124;2023-03-12T07:21:16;26.10;;;13.02;;
55913;SDS011;58179;48.776;9.124;2023-03-12T07:23:46;22.33;;;13.53;;
55913;SDS011;58179;48.776;9.124;2023-03-12T07:26:12;27.23;;;14.50;;
55913;SDS011;58179;48.776;9.124;2023-03-12T07:28:38;30.77;;;14.75;;
55913;SDS011;58179;48.776;9.124;2023-03-12T07:31:05;23.35;;;14.25;;
55913;SDS011;58179;48.776;9.124;2023-03-12T07:33:31;33.03;;;16.67;;
55913;SDS011;58179;48.776;9.124;2023-03-12T07:35:58;23.55;;;14.15;;
55913;SDS011;58179;48.776;9.124;2023-03-12T07:38:25;26.65;;;14.73;;
55913;SDS011;58179;48.776;9.124;2023-03-12T07:40:51;22.23;;;14.23;;
55913;SDS011;58179;48.776;9.124;2023-03-12T07:43:19;23.88;;;14.30;;
55913;SDS011;58179;48.776;9.124;2023-03-12T07:45:45;29.17;;;14.95;;
55913;SDS011;58179;48.776;9.124;2023-03-12T07:48:11;25.27;;;14.07;;
55913;SDS011;58179;48.776;9.124;2023-03-12T07:50:37;19.35;;;11.70;;
55913;SDS011;58179;48.776;9.124;2023-03-12T07:53:04;27.27;;;12.65;;
55913;SDS011;58179;48.776;9.124;2023-03-12T07:55:31;20.00;;;10.70;;
55913;SDS011;58179;48.776;9.124;2023-03-12T07:57:58;21.27;;;11.50;;
55913;SDS011;58179;48.776;9.124;2023-03-12T08:00:24;17.53;;;9.97;;
55913;SDS011;58179;48.776;9.124;2023-03-12T08:02:51;12.30;;;8.60;;
55913;SDS011;58179;48.776;9.124;2023-03-12T08:05:17;14.07;;;8.45;;
55913;SDS011;58179;48.776;9.124;2023-03-12T08:07:44;15.07;;;9.07;;
55913;SDS011;58179;48.776;9.124;2023-03-12T08:10:11;16.75;;;8.75;;
55913;SDS011;58179;48.776;9.124;2023-03-12T08:12:37;21.10;;;9.27;;
55913;SDS011;58179;48.776;9.124;2023-03-12T08:15:03;14.82;;;8.90;;
55913;SDS011;58179;48.776;9.124;2023-03-12T08:17:30;16.58;;;8.55;;
55913;SDS011;58179;48.776;9.124;2023-03-12T08:22:42;16.23;;;8.85;;
55913;SDS011;58179;48.776;9.124;2023-03-12T08:25:08;12.68;;;8.45;;
55913;SDS011;58179;48.776;9.124;2023-03-12T08:27:36;19.60;;;9.35;;
55913;SDS011;58179;48.776;9.124;2023-03-12T08:30:02;18.48;;;10.57;;
55913;SDS011;58179;48.776;9.124;2023-03-12T08:32:30;14.82;;;9.65;;
55913;SDS011;58179;48.776;9.124;2023-03-12T08:34:56;17.43;;;9.80;;
55913;SDS011;58179;48.776;9.124;2023-03-12T08:37:22;18.90;;;9.80;;
55913;SDS011;58179;48.776;9.124;2023-03-12T08:39:48;20.10;;;10.98;;
55913;SDS011;58179;48.776;9.124;2023-03-12T08:42:14;23.27;;;11.13;;
55913;SDS011;58179;48.776;9.124;2023-03-12T08:44:41;21.40;;;11.73;;
55913;SDS011;58179;48.776;9.124;2023-03-12T08:47:07;19.55;;;11.00;;
55913;SDS011;58179;48.776;9.124;2023-03-12T08:49:32;23.75;;;12.35;;
55913;SDS011;58179;48.776;9.124;2023-03-12T08:51:59;23.73;;;11.23;;
55913;SDS011;58179;48.776;9.124;2023-03-12T08:54:25;17.20;;;10.32;;
55913;SDS011;58179;48.776;9.124;2023-03-12T08:56:51;19.15;;;9.75;;
55913;SDS011;58179;48.776;9.124;2023-03-12T08:59:17;22.50;;;11.57;;
55913;SDS011;58179;48.776;9.124;2023-03-12T09:01:46;18.50;;;10.13;;
55913;SDS011;58179;48.776;9.124;2023-03-12T09:04:12;16.67;;;9.67;;
55913;SDS011;58179;48.776;9.124;2023-03-12T09:06:38;17.58;;;9.13;;
55913;SDS011;58179;48.776;9.124;2023-03-12T09:09:04;17.75;;;10.38;;
55913;SDS011;58179;48.776;9.124;2023-03-12T09:11:33;22.05;;;10.88;;
55913;SDS011;58179;48.776;9.124;2023-03-12T09:14:00;17.63;;;10.40;;
55913;SDS011;58179;48.776;9.124;2023-03-12T09:16:27;19.35;;;11.10;;
55913;SDS011;58179;48.776;9.124;2023-03-12T09:18:55;21.47;;;11.27;;
55913;SDS011;58179;48.776;9.124;2023-03-12T09:21:21;20.33;;;10.85;;
55913;SDS011;58179;48.776;9.124;2023-03-12T09:23:47;17.73;;;10.65;;
55913;SDS011;58179;48.776;9.124;2023-03-12T09:26:13;19.13;;;10.60;;
55913;SDS011;58179;48.776;9.124;2023-03-12T09:28:39;18.75;;;9.75;;
55913;SDS011;58179;48.776;9.124;2023-03-12T09:31:06;12.83;;;8.60;;
55913;SDS011;58179;48.776;9.124;2023-03-12T09:33:32;15.05;;;8.93;;
55913;SDS011;58179;48.776;9.124;2023-03-12T09:36:01;15.40;;;9.07;;
55913;SDS011;58179;48.776;9.124;2023-03-12T09:38:27;14.00;;;7.97;;
55913;SDS011;58179;48.776;9.124;2023-03-12T09:40:56;14.70;;;8.23;;
55913;SDS011;58179;48.776;9.124;2023-03-12T09:43:23;14.38;;;8.15;;
55913;SDS011;58179;48.776;9.124;2023-03-12T09:45:56;12.07;;;6.90;;
55913;SDS011;58179;48.776;9.124;2023-03-12T09:48:24;12.48;;;7.07;;
55913;SDS011;58179;48.776;9.124;2023-03-12T09:50:56;12.43;;;7.15;;
55913;SDS011;58179;48.776;9.124;2023-03-12T09:53:27;11.48;;;6.45;;
55913;SDS011;58179;48.776;9.124;2023-03-12T09:55:59;9.60;;;6.33;;
55913;SDS011;58179;48.776;9.124;2023-03-12T09:58:34;9.77;;;5.77;;
55913;SDS011;58179;48.776;9.124;2023-03-12T10:01:06;8.02;;;5.50;;
55913;SDS011;58179;48.776;9.124;2023-03-12T10:04:00;7.95;;;4.80;;
55913;SDS011;58179;48.776;9.124;2023-03-12T10:06:34;6.85;;;5.03;;
55913;SDS011;58179;48.776;9.124;2023-03-12T10:09:10;7.00;;;4.63;;
55913;SDS011;58179;48.776;9.124;2023-03-12T10:11:48;16.65;;;5.57;;
55913;SDS011;58179;48.776;9.124;2023-03-12T10:14:29;6.38;;;4.80;;
55913;SDS011;58179;48.776;9.124;2023-03-12T10:17:20;6.05;;;4.40;;
55913;SDS011;58179;48.776;9.124;2023-03-12T10:20:07;7.07;;;4.27;;
55913;SDS011;58179;48.776;9.124;2023-03-12T10:23:01;5.75;;;3.95;;
55913;SDS011;58179;48.776;9.124;2023-03-12T10:25:35;7.07;;;3.70;;
55913;SDS011;58179;48.776;9.124;2023-03-12T10:28:11;7.43;;;4.00;;
55913;SDS011;58179;48.776;9.124;2023-03-12T10:30:42;6.15;;;3.90;;
55913;SDS011;58179;48.776;9.124;2023-03-12T10:33:15;6.78;;;4.03;;
55913;SDS011;58179;48.776;9.124;2023-03-12T10:35:43;6.13;;;3.90;;
55913;SDS011;58179;48.776;9.124;2023-03-12T10:38:10;4.80;;;3.53;;
55913;SDS011;58179;48.776;9.124;2023-03-12T10:40:42;8.85;;;3.70;;
55913;SDS011;58179;48.776;9.124;2023-03-12T10:43:08;3.58;;;3.20;;
55913;SDS011;58179;48.776;9.124;2023-03-12T10:45:36;5.68;;;3.22;;
55913;SDS011;58179;48.776;9.124;2023-03-12T10:48:09;5.13;;;3.60;;
55913;SDS011;58179;48.776;9.124;2023-03-12T10:50:42;6.90;;;3.60;;
55913;SDS011;58179;48.776;9.124;2023-03-12T10:53:12;5.03;;;3.75;;
55913;SDS011;58179;48.776;9.124;2023-03-12T10:55:57;5.40;;;3.90;;
55913;SDS011;58179;48.776;9.124;2023-03-12T10:58:30;4.60;;;3.58;;
55913;SDS011;58179;48.776;9.124;2023-03-12T11:00:59;6.40;;;4.10;;
55913;SDS011;58179;48.776;9.124;2023-03-12T11:03:26;9.40;;;3.75;;
55913;SDS011;58179;48.776;9.124;2023-03-12T11:05:53;5.80;;;3.47;;
55913;SDS011;58179;48.776;9.124;2023-03-12T11:08:23;5.65;;;3.20;;
55913;SDS011;58179;48.776;9.124;2023-03-12T11:10:51;5.90;;;3.30;;
55913;SDS011;58179;48.776;9.124;2023-03-12T11:13:22;4.70;;;2.90;;
55913;SDS011;58179;48.776;9.124;2023-03-12T11:15:52;3.33;;;2.63;;
55913;SDS011;58179;48.776;9.124;2023-03-12T11:18:21;3.67;;;2.50;;
55913;SDS011;58179;48.776;9.124;2023-03-12T11:20:57;3.60;;;2.55;;
55913;SDS011;58179;48.776;9.124;2023-03-12T11:23:39;3.53;;;1.95;;
55913;SDS011;58179;48.776;9.124;2023-03-12T11:26:11;4.32;;;2.08;;
55913;SDS011;58179;48.776;9.124;2023-03-12T11:28:43;3.90;;;1.83;;
55913;SDS011;58179;48.776;9.124;2023-03-12T11:31:14;3.90;;;1.70;;
55913;SDS011;58179;48.776;9.124;2023-03-12T11:33:47;3.40;;;2.03;;
55913;SDS011;58179;48.776;9.124;2023-03-12T11:36:18;3.00;;;1.85;;
55913;SDS011;58179;48.776;9.124;2023-03-12T11:38:59;3.15;;;1.90;;
55913;SDS011;58179;48.776;9.124;2023-03-12T11:41:35;3.35;;;1.80;;
55913;SDS011;58179;48.776;9.124;2023-03-12T11:44:31;3.47;;;1.77;;
55913;SDS011;58179;48.776;9.124;2023-03-12T11:47:08;3.55;;;1.50;;
55913;SDS011;58179;48.776;9.124;2023-03-12T11:50:12;2.37;;;1.60;;
55913;SDS011;58179;48.776;9.124;2023-03-12T11:52:54;4.30;;;1.80;;
55913;SDS011;58179;48.776;9.124;2023-03-12T11:55:57;3.42;;;1.60;;
55913;SDS011;58179;48.776;9.124;2023-03-12T11:58:41;4.55;;;1.60;;
55913;SDS011;58179;48.776;9.124;2023-03-12T12:01:21;2.20;;;1.40;;
55913;SDS011;58179;48.776;9.124;2023-03-12T12:04:07;6.10;;;1.50;;
55913;SDS011;58179;48.776;9.124;2023-03-12T12:07:03;4.93;;;1.65;;
55913;SDS011;58179;48.776;9.124;2023-03-12T12:09:42;3.20;;;1.45;;
55913;SDS011;58179;48.776;9.124;2023-03-12T12:12:20;4.55;;;1.73;;
55913;SDS011;58179;48.776;9.124;2023-03-12T12:15:07;3.78;;;1.38;;
55913;SDS011;58179;48.776;9.124;2023-03-12T12:17:49;5.18;;;1.60;;
55913;SDS011;58179;48.776;9.124;2023-03-12T12:20:28;3.15;;;1.50;;
55913;SDS011;58179;48.776;9.124;2023-03-12T12:23:14;2.83;;;1.45;;
55913;SDS011;58179;48.776;9.124;2023-03-12T12:25:51;5.22;;;2.30;;
55913;SDS011;58179;48.776;9.124;2023-03-12T12:31:32;5.80;;;1.58;;
55913;SDS011;58179;48.776;9.124;2023-03-12T12:34:15;5.47;;;1.98;;
55913;SDS011;58179;48.776;9.124;2023-03-12T12:37:14;7.55;;;2.13;;
55913;SDS011;58179;48.776;9.124;2023-03-12T12:39:49;5.00;;;2.10;;
55913;SDS011;58179;48.776;9.124;2023-03-12T12:42:26;9.07;;;3.28;;
55913;SDS011;58179;48.776;9.124;2023-03-12T12:44:57;6.85;;;1.88;;
55913;SDS011;58179;48.776;9.124;2023-03-12T12:47:29;6.30;;;2.40;;
55913;SDS011;58179;48.776;9.124;2023-03-12T12:50:10;2.30;;;1.60;;
55913;SDS011;58179;48.776;9.124;2023-03-12T12:52:43;5.18;;;2.13;;
55913;SDS011;58179;48.776;9.124;2023-03-12T12:55:17;5.43;;;2.10;;
55913;SDS011;58179;48.776;9.124;2023-03-12T12:57:50;4.93;;;1.95;;
55913;SDS011;58179;48.776;9.124;2023-03-12T13:00:30;7.28;;;2.20;;
55913;SDS011;58179;48.776;9.124;2023-03-12T13:03:11;9.23;;;2.92;;
55913;SDS011;58179;48.776;9.124;2023-03-12T13:05:47;8.90;;;2.35;;
55913;SDS011;58179;48.776;9.124;2023-03-12T13:08:33;8.93;;;2.22;;
55913;SDS011;58179;48.776;9.124;2023-03-12T13:11:25;7.63;;;2.22;;
55913;SDS011;58179;48.776;9.124;2023-03-12T13:14:11;8.27;;;2.43;;
55913;SDS011;58179;48.776;9.124;2023-03-12T13:16:43;10.35;;;2.50;;
55913;SDS011;58179;48.776;9.124;2023-03-12T13:19:21;6.18;;;2.17;;
55913;SDS011;58179;48.776;9.124;2023-03-12T13:21:55;8.40;;;2.20;;
55913;SDS011;58179;48.776;9.124;2023-03-12T13:24:36;8.07;;;2.30;;
55913;SDS011;58179;48.776;9.124;2023-03-12T13:27:16;6.63;;;2.37;;
55913;SDS011;58179;48.776;9.124;2023-03-12T13:29:47;5.40;;;1.92;;
55913;SDS011;58179;48.776;9.124;2023-03-12T13:32:37;5.53;;;2.00;;
55913;SDS011;58179;48.776;9.124;2023-03-12T13:35:35;6.25;;;2.40;;
55913;SDS011;58179;48.776;9.124;2023-03-12T13:38:04;7.32;;;2.40;;
55913;SDS011;58179;48.776;9.124;2023-03-12T13:40:51;7.03;;;2.28;;
55913;SDS011;58179;48.776;9.124;2023-03-12T13:43:32;7.68;;;2.38;;
55913;SDS011;58179;48.776;9.124;2023-03-12T13:46:35;5.97;;;2.22;;
55913;SDS011;58179;48.776;9.124;2023-03-12T13:49:12;6.90;;;2.10;;
55913;SDS011;58179;48.776;9.124;2023-03-12T13:51:44;6.72;;;1.92;;
55913;SDS011;58179;48.776;9.124;2023-03-12T13:54:31;9.38;;;2.47;;
55913;SDS011;58179;48.776;9.124;2023-03-12T13:57:00;8.27;;;2.30;;
55913;SDS011;58179;48.776;9.124;2023-03-12T13:59:30;11.88;;;2.28;;
55913;SDS011;58179;48.776;9.124;2023-03-12T14:01:58;7.47;;;2.00;;
55913;SDS011;58179;48.776;9.124;2023-03-12T14:04:32;7.50;;;1.98;;
55913;SDS011;58179;48.776;9.124;2023-03-12T14:07:09;6.68;;;1.73;;
55913;SDS011;58179;48.776;9.124;2023-03-12T14:10:17;8.25;;;2.45;;
55913;SDS011;58179;48.776;9.124;2023-03-12T14:12:55;6.68;;;2.13;;
55913;SDS011;58179;48.776;9.124;2023-03-12T14:15:33;11.98;;;2.78;;
55913;SDS011;58179;48.776;9.124;2023-03-12T14:18:10;5.33;;;2.20;;
55913;SDS011;58179;48.776;9.124;2023-03-12T14:20:47;8.85;;;2.17;;
55913;SDS011;58179;48.776;9.124;2023-03-12T14:23:19;8.57;;;2.22;;
55913;SDS011;58179;48.776;9.124;2023-03-12T14:25:50;6.35;;;1.95;;
55913;SDS011;58179;48.776;9.124;2023-03-12T14:28:23;6.40;;;2.15;;
55913;SDS011;58179;48.776;9.124;2023-03-12T14:30:53;7.22;;;1.88;;
55913;SDS011;58179;48.776;9.124;2023-03-12T14:33:24;8.70;;;2.25;;
55913;SDS011;58179;48.776;9.124;2023-03-12T14:35:59;6.07;;;1.95;;
55913;SDS011;58179;48.776;9.124;2023-03-12T14:38:31;7.95;;;2.20;;
55913;SDS011;58179;48.776;9.124;2023-03-12T14:41:05;7.28;;;2.00;;
55913;SDS011;58179;48.776;9.124;2023-03-12T14:43:39;8.18;;;2.00;;
55913;SDS011;58179;48.776;9.124;2023-03-12T14:46:13;9.45;;;2.10;;
55913;SDS011;58179;48.776;9.124;2023-03-12T14:48:41;5.15;;;2.03;;
55913;SDS011;58179;48.776;9.124;2023-03-12T14:51:15;8.48;;;2.33;;
55913;SDS011;58179;48.776;9.124;2023-03-12T14:53:46;5.25;;;1.70;;
55913;SDS011;58179;48.776;9.124;2023-03-12T14:56:14;8.45;;;2.10;;
55913;SDS011;58179;48.776;9.124;2023-03-12T14:58:49;7.72;;;1.95;;
55913;SDS011;58179;48.776;9.124;2023-03-12T15:01:16;6.35;;;1.75;;